Time;durP1;ratioP1;P1;durP2;ratioP2;P2;SDS_P1;SDS_P2;PMS_P1;PMS_P2;Temp;Humidity;BMP_temperature;BMP_pressure;BME280_temperature;BME280_humidity;BME280_pressure;Samples;Min_cycle;Max_cycle;Signal;HPM_P1;HPM_P2
2023/01/16 00:01:57;;;;;;;0.77;0.77;;;5.00;83.60;;;3.96;69.58;94033.88;5059874;28;20198;-39
2023/01/16 00:04:24;;;;;;;0.68;0.68;;;5.00;83.60;;;3.97;69.69;94022.50;4992874;28;20214;-39
2023/01/16 00:06:51;;;;;;;0.60;0.60;;;5.00;83.70;;;3.99;69.76;94022.31;4993048;28;20259;-39
2023/01/16 00:09:19;;;;;;;0.70;0.70;;;5.00;83.70;;;4.00;69.60;94011.78;4993086;28;20227;-38
2023/01/16 00:11:46;;;;;;;0.60;0.60;;;5.00;83.60;;;4.01;69.41;94008.19;4993054;28;20222;-39
2023/01/16 00:14:13;;;;;;;0.80;0.80;;;5.00;83.60;;;4.03;69.66;93994.25;5059891;28;20649;-39
2023/01/16 00:16:40;;;;;;;0.70;0.70;;;5.00;83.60;;;4.04;69.55;94006.25;4992792;28;20202;-38
2023/01/16 00:19:07;;;;;;;0.70;0.70;;;5.00;83.60;;;4.01;69.68;94012.59;4993183;28;20618;-38
2023/01/16 00:21:34;;;;;;;0.70;0.70;;;5.10;83.60;;;4.01;69.67;94012.59;4992777;28;20209;-37
2023/01/16 00:24:02;;;;;;;0.80;0.80;;;5.10;83.60;;;4.04;69.48;94001.06;4992744;28;20242;-39
2023/01/16 00:26:29;;;;;;;0.70;0.70;;;5.00;83.50;;;4.05;69.54;94005.28;4992605;28;20237;-38
2023/01/16 00:28:58;;;;;;;0.70;0.70;;;5.10;83.70;;;4.04;69.33;93999.28;5043763;28;20625;-36
2023/01/16 00:31:25;;;;;;;0.70;0.70;;;5.10;83.60;;;4.04;69.54;93999.28;4992947;28;20575;-38
2023/01/16 00:33:52;;;;;;;0.80;0.80;;;5.10;83.60;;;4.03;69.67;93994.25;4992562;28;20208;-38
2023/01/16 00:36:19;;;;;;;0.70;0.70;;;5.10;83.60;;;4.02;69.43;93993.47;5059309;28;20216;-37
2023/01/16 00:38:47;;;;;;;0.80;0.80;;;5.10;83.60;;;4.03;69.47;93994.25;4992611;28;20407;-39
2023/01/16 00:41:14;;;;;;;0.60;0.60;;;5.10;83.60;;;4.04;69.31;93993.28;4992784;28;20194;-38
2023/01/16 00:43:41;;;;;;;0.70;0.70;;;5.10;83.60;;;4.02;69.69;93988.25;4992303;28;20213;-39
2023/01/16 00:46:08;;;;;;;0.70;0.70;;;5.10;83.60;;;4.00;69.51;93988.44;4992468;28;20195;-39
2023/01/16 00:48:35;;;;;;;0.70;0.70;;;5.00;83.50;;;4.00;69.72;94000.59;4995528;28;20201;-33
2023/01/16 00:51:03;;;;;;;0.70;0.70;;;5.10;83.60;;;3.99;69.77;93997.19;5063869;28;20232;-33
2023/01/16 00:53:30;;;;;;;0.70;0.70;;;5.00;83.60;;;4.00;69.68;93995.41;4995807;28;20238;-39
2023/01/16 00:55:57;;;;;;;0.70;0.70;;;5.00;83.60;;;4.01;69.80;93994.44;5063705;28;20645;-39
2023/01/16 00:58:24;;;;;;;0.70;0.70;;;5.00;83.60;;;4.02;69.69;93993.47;4995908;28;20205;-37
2023/01/16 01:00:51;;;;;;;0.70;0.70;;;5.10;83.70;;;4.00;69.75;93996.22;4995755;28;20704;-37
2023/01/16 01:03:19;;;;;;;0.70;0.70;;;5.10;83.60;;;4.00;69.33;93987.63;4995516;28;20205;-38
2023/01/16 01:05:45;;;;;;;0.70;0.70;;;5.10;83.70;;;3.98;69.72;93987.00;4995681;28;20194;-36
2023/01/16 01:08:13;;;;;;;0.60;0.60;;;5.10;83.60;;;3.98;69.57;93987.00;5062682;28;20251;-36
2023/01/16 01:10:40;;;;;;;0.73;0.73;;;5.10;83.60;;;4.00;69.39;93987.63;4995791;28;20190;-38
2023/01/16 01:13:07;;;;;;;0.70;0.70;;;5.10;83.70;;;3.99;69.66;93983.41;4995384;28;20205;-37
2023/01/16 01:15:34;;;;;;;0.63;0.63;;;5.10;83.60;;;3.98;69.99;93987.00;4995611;28;20194;-39
2023/01/16 01:18:01;;;;;;;0.70;0.70;;;5.10;83.60;;;4.00;70.06;93980.66;4995667;28;20205;-37
2023/01/16 01:20:29;;;;;;;0.70;0.70;;;5.10;83.70;;;4.03;69.77;93978.69;4995496;28;20525;-36
2023/01/16 01:22:56;;;;;;;0.80;0.80;;;5.10;83.60;;;4.04;69.68;93975.94;4995459;28;20220;-40
2023/01/16 01:25:24;;;;;;;0.73;0.73;;;5.10;83.70;;;4.05;69.80;93967.13;4995175;28;20269;-39
2023/01/16 01:27:51;;;;;;;0.70;0.70;;;5.10;83.60;;;4.08;69.89;93972.00;4995491;28;20209;-38
2023/01/16 01:30:19;;;;;;;0.60;0.60;;;5.10;83.70;;;4.09;69.71;93975.38;4995372;28;20205;-36
2023/01/16 01:32:46;;;;;;;0.90;0.90;;;5.10;83.70;;;4.11;69.77;93976.03;4995350;28;20520;-35
2023/01/16 01:35:13;;;;;;;0.70;0.70;;;5.10;83.70;;;4.10;69.63;93972.63;5062968;28;20202;-36
2023/01/16 01:37:40;;;;;;;0.70;0.70;;;5.10;83.70;;;4.10;69.50;93980.41;5062659;28;20198;-39
2023/01/16 01:40:08;;;;;;;0.70;0.70;;;5.20;83.70;;;4.10;69.79;93970.03;4995126;28;20202;-38
2023/01/16 01:42:47;;;;;;;0.70;0.70;;;5.10;83.60;;;4.08;69.49;93969.41;4995116;28;20202;-35
2023/01/16 01:45:26;;;;;;;0.80;0.80;;;5.10;83.40;;;4.09;69.58;93955.44;4995056;28;20595;-38
2023/01/16 01:48:24;;;;;;;0.70;0.70;;;5.10;83.50;;;4.02;69.18;93944.16;4994364;28;20178;-39
2023/01/16 01:50:57;;;;;;;0.70;0.70;;;5.10;83.30;;;4.06;69.43;93952.41;4998801;28;20302;-37
2023/01/16 01:53:35;;;;;;;0.60;0.60;;;5.10;83.50;;;4.05;69.44;93943.78;4995470;28;20203;-38
2023/01/16 01:56:12;;;;;;;0.70;0.70;;;5.10;83.50;;;4.04;69.48;93931.81;5061867;28;20239;-35
2023/01/16 01:58:41;;;;;;;0.70;0.70;;;5.10;83.40;;;4.05;69.73;93943.00;5061758;28;20532;-37
2023/01/16 02:01:14;;;;;;;0.80;0.80;;;5.10;83.60;;;4.02;69.84;93936.38;5058935;28;20257;-36
2023/01/16 02:03:50;;;;;;;0.68;0.68;;;5.10;83.60;;;4.01;69.55;93932.16;4995182;28;20230;-36
2023/01/16 02:06:28;;;;;;;0.70;0.70;;;5.10;83.50;;;4.00;69.62;93933.13;4994816;28;20190;-40
2023/01/16 02:08:55;;;;;;;0.70;0.70;;;5.10;83.40;;;3.99;69.58;93927.16;4994856;28;20182;-38
2023/01/16 02:11:40;;;;;;;0.80;0.80;;;5.10;83.60;;;3.98;69.38;93909.97;5062365;28;20286;-38
2023/01/16 02:14:13;;;;;;;0.60;0.60;;;5.10;83.40;;;3.99;69.47;93910.75;4994586;28;20190;-40
2023/01/16 02:19:44;;;;;;;0.70;0.70;;;5.10;83.60;;;3.98;69.71;93898.78;4994941;28;20594;-39
2023/01/16 02:22:56;;;;;;;0.63;0.63;;;5.10;83.40;;;3.96;69.68;93893.75;5062234;28;20260;-36
2023/01/16 02:25:32;;;;;;;0.70;0.70;;;5.10;83.30;;;3.96;69.57;93885.97;5045244;28;20245;-38
2023/01/16 02:28:44;;;;;;;0.70;0.70;;;5.00;83.30;;;3.96;69.71;93875.59;4994702;28;20602;-39
2023/01/16 02:31:23;;;;;;;0.80;0.80;;;5.00;83.30;;;3.94;69.53;93859.44;5062150;28;20202;-35
2023/01/16 02:34:16;;;;;;;0.70;0.70;;;5.00;83.60;;;3.94;69.46;93866.38;5061277;28;20224;-39
2023/01/16 02:37:30;;;;;;;0.70;0.70;;;5.00;83.30;;;3.90;69.75;93871.13;4994441;28;20179;-39
2023/01/16 02:40:32;;;;;;;0.70;0.70;;;5.00;83.40;;;3.92;69.79;93874.34;5061728;28;20185;-40
2023/01/16 02:43:33;;;;;;;0.70;0.70;;;5.00;83.50;;;3.89;69.80;93853.94;4994322;28;20174;-39
2023/01/16 02:46:08;;;;;;;0.80;0.80;;;5.00;83.60;;;3.88;69.44;93852.31;4994018;28;20222;-37
2023/01/16 02:49:07;;;;;;;0.75;0.75;;;4.90;83.40;;;3.89;69.47;93846.16;5061337;28;20279;-36
2023/01/16 02:51:40;;;;;;;0.70;0.70;;;4.90;83.40;;;3.93;69.69;93839.66;4977213;28;20197;-39
2023/01/16 02:54:16;;;;;;;0.70;0.70;;;4.90;83.70;;;3.94;69.74;93836.09;4994174;28;20252;-37
2023/01/16 02:56:57;;;;;;;0.80;0.80;;;4.90;83.50;;;3.94;69.59;93836.09;5044622;28;20182;-40
2023/01/16 02:59:27;;;;;;;0.70;0.70;;;4.90;83.50;;;3.96;69.58;93833.31;4994056;28;20209;-37
2023/01/16 03:01:57;;;;;;;0.70;0.70;;;5.00;83.60;;;3.95;69.53;93836.88;4993983;28;20175;-38
2023/01/16 03:04:52;;;;;;;0.63;0.63;;;5.00;83.50;;;3.94;69.55;93836.09;4993784;28;20283;-36
2023/01/16 03:07:31;;;;;;;0.60;0.60;;;5.00;83.40;;;3.93;69.61;93831.88;4994157;28;20208;-40
2023/01/16 03:10:29;;;;;;;0.70;0.70;;;5.00;83.60;;;3.92;69.50;93824.25;4994265;28;20605;-38
2023/01/16 03:13:18;;;;;;;0.70;0.70;;;5.00;83.40;;;3.88;69.53;93810.81;4994175;28;20198;-36
2023/01/16 03:16:07;;;;;;;0.70;0.70;;;4.90;83.30;;;3.86;69.39;93810.22;5060730;28;20590;-39
2023/01/16 03:18:52;;;;;;;0.90;0.90;;;4.90;83.20;;;3.83;69.41;93808.78;4993829;28;20182;-37
2023/01/16 03:21:53;;;;;;;0.70;0.70;;;4.90;83.20;;;3.83;69.61;93803.59;4993889;28;20202;-37
2023/01/16 03:24:57;;;;;;;0.80;0.80;;;4.90;83.30;;;3.82;69.44;93816.72;5060611;28;20540;-37
2023/01/16 03:27:54;;;;;;;0.70;0.70;;;4.80;83.30;;;3.84;69.66;93815.59;4993855;28;20285;-37
2023/01/16 03:30:36;;;;;;;0.80;0.80;;;4.80;83.30;;;3.83;69.70;93807.97;5060616;28;20193;-37
2023/01/16 03:33:13;;;;;;;0.90;0.90;;;4.80;83.30;;;3.84;69.25;93807.81;4993546;28;20196;-37
2023/01/16 03:36:10;;;;;;;0.70;0.70;;;4.80;83.50;;;3.85;69.43;93798.22;4993336;28;20197;-35
2023/01/16 03:38:41;;;;;;;0.70;0.70;;;4.80;83.50;;;3.87;69.91;93788.47;4993623;28;20641;-37
2023/01/16 03:41:14;;;;;;;0.70;0.70;;;4.90;83.70;;;3.90;70.00;93795.09;4993327;28;20205;-37
2023/01/16 03:43:44;;;;;;;0.70;0.70;;;4.90;83.60;;;3.90;69.84;93800.28;5060408;28;20179;-38
2023/01/16 03:46:19;;;;;;;0.80;0.80;;;4.90;83.60;;;3.89;69.45;93799.47;4993043;28;20208;-39
2023/01/16 03:49:16;;;;;;;0.70;0.70;;;4.90;83.60;;;3.89;69.30;93780.53;5059699;28;20284;-38
2023/01/16 03:51:50;;;;;;;0.70;0.70;;;4.90;83.30;;;3.87;69.48;93788.47;4993283;28;20617;-38
2023/01/16 03:54:47;;;;;;;0.70;0.70;;;4.90;83.40;;;3.84;69.51;93781.03;4993369;28;20619;-40
2023/01/16 03:57:26;;;;;;;0.70;0.70;;;4.90;83.30;;;3.82;69.48;93768.25;4993516;28;20178;-38
2023/01/16 03:59:54;;;;;;;0.70;0.70;;;4.90;83.30;;;3.81;69.62;93764.06;4976252;28;20269;-39
2023/01/16 04:02:31;;;;;;;0.73;0.73;;;4.90;83.50;;;3.79;69.76;93758.22;4993065;28;20198;-39
2023/01/16 04:05:57;;;;;;;0.70;0.70;;;4.90;83.30;;;3.78;69.47;93767.00;5059313;28;20206;-38
2023/01/16 04:08:32;;;;;;;0.70;0.70;;;4.90;83.30;;;3.78;69.77;93761.00;5058900;28;20225;-40
2023/01/16 04:11:00;;;;;;;0.70;0.70;;;4.80;83.30;;;3.78;69.80;93758.41;5059728;28;20213;-39
2023/01/16 04:13:38;;;;;;;0.70;0.70;;;4.90;83.50;;;3.78;69.51;93750.63;4992996;28;20206;-37
2023/01/16 04:16:10;;;;;;;0.70;0.70;;;4.80;83.30;;;3.80;69.43;93749.47;5043634;28;20602;-38
2023/01/16 04:18:37;;;;;;;0.60;0.60;;;4.80;83.40;;;3.82;69.71;93746.69;4993419;28;20193;-36
2023/01/16 04:21:06;;;;;;;0.70;0.70;;;4.80;83.60;;;3.81;69.82;93748.50;4992827;28;20201;-40
2023/01/16 04:23:35;;;;;;;0.70;0.70;;;4.80;83.50;;;3.82;69.74;93738.91;4992252;28;20222;-36
2023/01/16 04:26:02;;;;;;;0.70;0.70;;;4.80;83.50;;;3.84;69.91;93734.34;4992364;28;20603;-38
2023/01/16 04:28:29;;;;;;;0.80;0.80;;;4.90;83.70;;;3.83;69.79;93732.75;4975978;28;20209;-39
2023/01/16 04:30:56;;;;;;;0.60;0.60;;;4.90;83.70;;;3.84;69.61;93726.56;4993071;28;20198;-38
2023/01/16 04:33:23;;;;;;;0.80;0.80;;;4.90;83.60;;;3.85;69.71;93726.38;5059363;28;20315;-39
2023/01/16 04:35:50;;;;;;;0.70;0.70;;;4.80;83.50;;;3.83;69.56;93724.97;4992488;28;20209;-39
2023/01/16 04:38:17;;;;;;;0.80;0.80;;;4.90;83.60;;;3.85;69.81;93717.81;5059947;28;20611;-37
2023/01/16 04:40:44;;;;;;;0.80;0.80;;;4.90;83.60;;;3.85;69.92;93716.00;4992654;28;20567;-39
2023/01/16 04:43:12;;;;;;;0.70;0.70;;;4.90;83.60;;;3.87;69.77;93720.22;4992682;28;20259;-36
2023/01/16 04:45:40;;;;;;;0.90;0.90;;;4.90;83.70;;;3.87;69.92;93720.22;4992294;28;20274;-36
2023/01/16 04:48:07;;;;;;;0.70;0.70;;;4.90;83.70;;;3.88;69.74;93721.84;4992642;28;20222;-37
2023/01/16 04:50:34;;;;;;;0.90;0.90;;;4.90;83.60;;;3.89;69.69;93719.06;4992439;28;20194;-39
2023/01/16 04:53:01;;;;;;;0.70;0.70;;;4.90;83.60;;;3.89;69.58;93710.47;4992729;28;20221;-37
2023/01/16 04:55:29;;;;;;;0.70;0.70;;;4.90;83.60;;;3.90;69.65;93715.47;4992500;28;20281;-39
2023/01/16 04:57:56;;;;;;;0.80;0.80;;;4.90;83.60;;;3.89;69.80;93703.50;4992378;28;20217;-38
2023/01/16 05:00:23;;;;;;;0.70;0.70;;;5.00;83.60;;;3.89;69.74;93687.94;5059328;28;20259;-38
2023/01/16 05:02:52;;;;;;;0.70;0.70;;;5.00;83.60;;;3.91;69.64;93698.16;4992399;28;20194;-39
2023/01/16 05:05:19;;;;;;;0.70;0.70;;;5.00;83.50;;;3.91;69.94;93692.97;4992180;28;20221;-38
2023/01/16 05:08:15;;;;;;;0.70;0.70;;;5.00;83.60;;;3.91;69.80;93680.78;4992229;28;20652;-39
2023/01/16 05:10:34;;;;;;;0.90;0.90;;;5.00;83.60;;;3.90;69.84;93681.75;4992284;28;20256;-39
2023/01/16 05:13:01;;;;;;;0.80;0.80;;;5.00;83.60;;;3.90;69.76;93676.56;4975261;28;20198;-39
2023/01/16 05:15:28;;;;;;;0.70;0.70;;;5.00;83.60;;;3.90;69.77;93681.75;4992315;28;20214;-36
2023/01/16 05:17:56;;;;;;;0.77;0.77;;;5.00;83.60;;;3.89;69.67;93674.97;4992146;28;20198;-38
2023/01/16 05:20:24;;;;;;;0.70;0.70;;;5.00;83.60;;;3.90;69.61;93676.56;4992147;28;20187;-37
2023/01/16 05:22:51;;;;;;;0.70;0.70;;;4.90;83.60;;;3.90;69.72;93671.38;4992449;28;20297;-39
2023/01/16 05:25:18;;;;;;;0.60;0.60;;;4.90;83.50;;;3.90;69.92;93661.00;4991763;28;20265;-39
2023/01/16 05:27:52;;;;;;;0.70;0.70;;;4.90;83.60;;;3.91;69.76;93661.81;4992252;28;20206;-39
2023/01/16 05:30:19;;;;;;;0.60;0.60;;;4.90;83.40;;;3.90;69.65;93658.41;4992503;28;20174;-38
2023/01/16 05:32:46;;;;;;;0.70;0.70;;;5.00;83.60;;;3.91;69.72;93661.81;4991943;28;20617;-39
2023/01/16 05:35:15;;;;;;;0.70;0.70;;;5.00;83.60;;;3.91;70.01;93659.22;4994125;28;20208;-39
2023/01/16 05:37:43;;;;;;;0.70;0.70;;;5.00;83.50;;;3.91;69.96;93656.66;4994435;28;20220;-39
2023/01/16 05:40:11;;;;;;;0.70;0.70;;;5.00;84.30;;;3.91;70.18;93646.25;4995330;28;20202;-38
2023/01/16 05:42:38;;;;;;;0.70;0.70;;;5.00;83.60;;;3.91;70.02;93641.06;5063142;28;20216;-38
2023/01/16 05:45:06;;;;;;;0.70;0.70;;;5.00;83.50;;;3.91;69.88;93628.91;4994901;28;20224;-38
2023/01/16 05:47:33;;;;;;;0.70;0.70;;;5.00;83.50;;;3.92;69.79;93624.50;4995114;28;20289;-39
2023/01/16 05:50:00;;;;;;;0.70;0.70;;;4.90;83.50;;;3.91;69.73;93631.50;4995380;28;20198;-38
2023/01/16 05:52:27;;;;;;;0.80;0.80;;;5.00;83.60;;;3.91;69.78;93622.91;4995007;28;20190;-39
2023/01/16 05:54:55;;;;;;;0.80;0.80;;;5.00;83.50;;;3.92;69.77;93632.28;4994918;28;20198;-38
2023/01/16 05:57:23;;;;;;;0.70;0.70;;;5.00;83.60;;;3.89;70.09;93620.47;4995060;28;20194;-38
2023/01/16 05:59:51;;;;;;;0.80;0.80;;;5.00;83.50;;;3.90;69.84;93616.13;4994999;28;20260;-38
2023/01/16 06:02:20;;;;;;;0.70;0.70;;;5.00;83.50;;;3.90;69.87;93608.34;4994918;28;20190;-39
2023/01/16 06:04:47;;;;;;;0.70;0.70;;;5.00;83.40;;;3.88;70.03;93618.88;4995375;28;20242;-38
2023/01/16 06:07:15;;;;;;;0.80;0.80;;;5.00;83.50;;;3.89;69.91;93598.94;5062045;28;20197;-40
2023/01/16 06:09:42;;;;;;;0.63;0.63;;;5.00;83.50;;;3.88;69.87;93597.34;4995171;28;20572;-38
2023/01/16 06:12:17;;;;;;;0.70;0.70;;;5.00;83.50;;;3.87;69.84;93588.75;4994749;28;20186;-39
2023/01/16 06:14:45;;;;;;;0.80;0.80;;;5.00;83.30;;;3.86;69.78;93584.56;4994902;28;20272;-38
2023/01/16 06:17:15;;;;;;;0.80;0.80;;;5.00;83.40;;;3.85;70.15;93573.34;4994516;28;20182;-38
2023/01/16 06:19:44;;;;;;;0.80;0.80;;;5.00;84.20;;;3.86;69.83;93574.19;5062363;28;20675;-39
2023/01/16 06:22:14;;;;;;;0.90;0.90;;;4.90;83.30;;;3.84;69.74;93574.38;5061788;28;20228;-39
2023/01/16 06:24:41;;;;;;;0.70;0.70;;;5.00;83.30;;;3.83;69.60;93564.97;4994477;28;20238;-37
2023/01/16 06:27:08;;;;;;;0.80;0.80;;;4.90;83.30;;;3.84;69.77;93561.41;4994490;28;20187;-36
2023/01/16 06:29:38;;;;;;;0.60;0.60;;;4.90;83.40;;;3.83;69.72;93562.38;4994525;28;20198;-38
2023/01/16 06:32:05;;;;;;;0.70;0.70;;;4.90;83.40;;;3.81;69.70;93559.16;4994457;28;20263;-38
2023/01/16 06:34:32;;;;;;;0.80;0.80;;;4.90;83.30;;;3.82;69.65;93552.16;4994359;28;20205;-39
2023/01/16 06:37:02;;;;;;;0.70;0.70;;;4.90;83.30;;;3.79;69.75;93549.97;4994533;28;20183;-36
2023/01/16 06:39:29;;;;;;;0.60;0.60;;;4.90;83.30;;;3.77;69.78;93544.16;4994445;28;20186;-39
2023/01/16 06:41:56;;;;;;;0.70;0.70;;;4.90;83.30;;;3.78;69.54;93538.78;4994401;28;20198;-36
2023/01/16 06:44:23;;;;;;;0.70;0.70;;;4.90;83.30;;;3.77;69.77;93533.78;4994151;28;20524;-39
2023/01/16 06:46:50;;;;;;;0.70;0.70;;;4.90;83.30;;;3.74;69.63;93534.16;4993942;28;20293;-38
2023/01/16 06:49:17;;;;;;;0.80;0.80;;;4.80;83.20;;;3.70;69.47;93531.13;4994205;28;20186;-37
2023/01/16 06:51:45;;;;;;;0.70;0.70;;;4.80;83.10;;;3.64;69.28;93534.47;4994283;28;20198;-38
2023/01/16 06:54:12;;;;;;;0.70;0.70;;;4.80;83.00;;;3.60;69.42;93530.59;4994094;28;20186;-39
2023/01/16 06:56:39;;;;;;;0.70;0.70;;;4.80;82.90;;;3.56;69.52;93522.38;4994068;28;20206;-39
2023/01/16 06:59:06;;;;;;;0.70;0.70;;;4.70;82.80;;;3.51;69.46;93525.53;4994054;28;20206;-39
2023/01/16 07:01:33;;;;;;;0.70;0.70;;;4.70;82.80;;;3.47;69.34;93526.88;4993975;28;20629;-39
2023/01/16 07:04:01;;;;;;;0.70;0.70;;;4.70;82.80;;;3.43;69.12;93511.88;4993988;28;20202;-38
2023/01/16 07:06:28;;;;;;;0.70;0.70;;;4.60;82.70;;;3.40;69.18;93501.88;4993707;28;20216;-37
2023/01/16 07:08:55;;;;;;;0.70;0.70;;;4.60;82.70;;;3.35;69.20;93499.84;4993906;28;20198;-39
2023/01/16 07:11:22;;;;;;;0.80;0.80;;;4.60;82.70;;;3.32;69.23;93497.59;5061405;28;20297;-38
2023/01/16 07:22:33;;;;;;;0.70;0.70;;;4.50;82.60;;;3.28;68.96;93506.72;4993812;28;20190;-39
2023/01/16 07:24:58;;;;;;;0.80;0.80;;;4.40;82.60;;;3.09;69.41;93485.59;4993452;28;20230;-39
2023/01/16 07:27:26;;;;;;;0.70;0.70;;;4.30;82.70;;;3.08;69.35;93475.41;5060331;28;20197;-33
2023/01/16 07:29:53;;;;;;;0.70;0.70;;;4.30;82.70;;;3.08;69.67;93470.25;4992744;28;20540;-33
2023/01/16 07:32:21;;;;;;;0.77;0.77;;;4.30;82.80;;;3.08;69.57;93475.41;5060512;28;20194;-33
2023/01/16 07:34:48;;;;;;;0.70;0.70;;;4.30;82.90;;;3.07;69.72;93474.59;5060643;28;20187;-33
2023/01/16 07:37:15;;;;;;;0.70;0.70;;;4.20;82.90;;;3.07;69.96;93472.00;4993328;28;20191;-38
2023/01/16 07:39:42;;;;;;;0.80;0.80;;;4.20;83.00;;;3.08;69.81;93468.44;4993514;28;20200;-34
2023/01/16 07:42:09;;;;;;;0.80;0.80;;;4.20;83.10;;;3.08;69.76;93463.25;4993690;28;20263;-40
2023/01/16 07:44:36;;;;;;;0.80;0.80;;;4.20;83.10;;;3.08;69.65;93457.28;4993710;28;20572;-46
2023/01/16 07:47:03;;;;;;;0.70;0.70;;;4.20;83.00;;;3.06;69.36;93452.25;4993198;28;20214;-40
2023/01/16 07:49:30;;;;;;;0.70;0.70;;;4.20;83.00;;;3.06;69.39;93443.72;4993346;28;20194;-38
2023/01/16 07:51:57;;;;;;;0.80;0.80;;;4.20;82.90;;;3.01;69.23;93447.63;4993544;28;20678;-38
2023/01/16 07:54:24;;;;;;;0.77;0.77;;;4.20;82.80;;;2.98;69.23;93448.00;4993320;28;20229;-32
2023/01/16 07:56:51;;;;;;;0.80;0.80;;;4.20;82.70;;;2.95;69.23;93440.59;4992407;28;20638;-33
2023/01/16 07:59:18;;;;;;;0.90;0.90;;;4.10;82.60;;;2.90;69.27;93432.56;4992366;28;20198;-38
2023/01/16 08:01:46;;;;;;;0.70;0.70;;;4.10;82.60;;;2.87;69.25;93420.00;4993397;28;20705;-42
2023/01/16 08:04:13;;;;;;;0.70;0.70;;;4.10;83.40;;;2.84;69.44;93415.94;4993165;28;20202;-33
2023/01/16 08:06:44;;;;;;;0.70;0.70;;;4.10;82.60;;;2.83;69.46;93400.59;4993051;28;20218;-32
2023/01/16 08:09:12;;;;;;;0.70;0.70;;;4.00;82.60;;;2.82;69.44;93386.03;4993160;28;20274;-38
2023/01/16 08:11:39;;;;;;;0.70;0.70;;;4.00;82.60;;;2.82;69.58;93380.88;5060094;28;20195;-33
2023/01/16 08:14:07;;;;;;;0.70;0.70;;;4.00;82.80;;;2.85;69.50;93376.13;4992865;28;20202;-34
2023/01/16 08:16:34;;;;;;;0.70;0.70;;;4.00;82.80;;;2.86;69.79;93372.56;4992807;28;20194;-40
2023/01/16 08:19:01;;;;;;;0.70;0.70;;;4.00;83.00;;;2.93;70.08;93361.47;4992952;28;20201;-31
2023/01/16 08:21:29;;;;;;;0.80;0.80;;;4.00;83.20;;;2.99;70.18;93356.38;4992831;28;20202;-40
2023/01/16 08:23:57;;;;;;;0.80;0.80;;;4.00;83.30;;;3.04;70.36;93354.03;4993275;28;20259;-32
2023/01/16 08:26:24;;;;;;;0.80;0.80;;;4.00;83.50;;;3.13;70.34;93346.94;4992420;28;20238;-38
2023/01/16 08:28:53;;;;;;;0.80;0.80;;;4.10;83.70;;;3.22;70.56;93341.63;4992986;28;20275;-32
2023/01/16 08:31:20;;;;;;;0.70;0.70;;;4.10;83.80;;;3.30;70.86;93339.72;5059593;28;20195;-39
2023/01/16 08:33:49;;;;;;;0.70;0.70;;;4.20;83.90;;;3.38;70.68;93332.81;4992972;28;20209;-40
2023/01/16 08:36:19;;;;;;;0.70;0.70;;;4.20;83.90;;;3.46;70.60;93327.50;5059420;28;20201;-39
2023/01/16 08:38:49;;;;;;;0.70;0.70;;;4.30;84.10;;;3.53;70.39;93316.19;4992818;28;20196;-32
2023/01/16 08:52:45;;;;;;;0.80;0.80;;;4.70;84.40;;;3.97;70.25;93279.75;5049015;28;20179;-41
2023/01/16 08:55:12;;;;;;;0.70;0.70;;;4.70;84.20;;;4.03;70.13;93262.63;5059302;28;20240;-33
2023/01/16 08:57:39;;;;;;;0.80;0.80;;;4.80;84.20;;;4.08;69.90;93260.28;4992381;28;20585;-37
2023/01/16 09:00:08;;;;;;;0.70;0.70;;;4.90;84.20;;;4.15;69.83;93251.50;4992489;28;20523;-40
2023/01/16 09:02:36;;;;;;;0.60;0.60;;;4.90;84.10;;;4.22;70.23;93243.75;5059561;28;20625;-33
2023/01/16 09:05:05;;;;;;;0.80;0.80;;;5.00;84.20;;;4.29;69.67;93238.59;4975534;28;20202;-33
2023/01/16 09:07:32;;;;;;;0.70;0.70;;;5.00;84.10;;;4.37;70.19;93237.59;4991486;28;20321;-33
2023/01/16 09:09:59;;;;;;;0.70;0.70;;;5.10;84.20;;;4.44;70.01;93236.66;4995716;28;20201;-33
2023/01/16 09:15:12;;;;;;;0.80;0.80;;;5.30;84.20;;;4.56;69.72;93223.88;5052954;28;20269;-33
2023/01/16 09:17:39;;;;;;;0.80;0.80;;;5.30;84.10;;;4.62;69.83;93211.91;4995864;28;20587;-33
2023/01/16 09:20:07;;;;;;;0.70;0.70;;;5.30;84.00;;;4.69;69.86;93215.31;4996016;28;20285;-33
2023/01/16 09:22:34;;;;;;;0.80;0.80;;;5.40;84.10;;;4.74;69.96;93202.53;4995673;28;20201;-38
2023/01/16 09:25:01;;;;;;;0.70;0.70;;;5.40;84.00;;;4.80;69.52;93200.97;5062756;28;20259;-37
2023/01/16 09:27:28;;;;;;;0.80;0.80;;;5.60;84.00;;;4.88;69.83;93187.78;4995170;28;20221;-36
2023/01/16 09:29:55;;;;;;;0.75;0.75;;;5.60;84.10;;;4.94;69.68;93194.78;4995472;28;20686;-37
2023/01/16 09:32:22;;;;;;;0.70;0.70;;;5.60;84.00;;;5.00;69.77;93174.97;5063701;28;20210;-37
2023/01/16 09:34:49;;;;;;;0.80;0.80;;;5.70;84.00;;;5.05;69.80;93175.16;5062583;28;20194;-39
2023/01/16 09:37:16;;;;;;;0.70;0.70;;;5.70;83.90;;;5.08;69.52;93168.78;4995274;28;20248;-36
2023/01/16 09:39:44;;;;;;;0.80;0.80;;;5.80;83.90;;;5.10;69.37;93158.97;4995493;28;20298;-31
2023/01/16 09:45:10;;;;;;;0.70;0.70;;;5.90;83.60;;;5.13;69.17;93153.38;4995394;28;20194;-32
2023/01/16 09:47:44;;;;;;;0.70;0.70;;;5.90;83.30;;;5.16;68.89;93137.38;5061211;28;20208;-32
2023/01/16 09:50:44;;;;;;;0.80;0.80;;;5.90;83.40;;;5.19;nan;93130.97;4995111;28;20236;-32
2023/01/16 09:59:25;;;;;;;0.68;0.68;;;6.00;83.30;;;5.25;68.41;93109.41;4995099;28;20518;-33
2023/01/16 10:02:22;;;;;;;0.70;0.70;;;6.10;83.20;;;5.27;68.47;93100.38;4995078;28;20652;-32
2023/01/16 10:04:52;;;;;;;0.90;0.90;;;6.10;83.10;;;5.29;67.75;93087.19;4995408;28;20230;-32
2023/01/16 10:07:38;;;;;;;0.70;0.70;;;6.10;83.10;;;5.37;68.23;93086.16;5061890;28;20246;-32
2023/01/16 10:10:05;;;;;;;0.70;0.70;;;6.10;82.90;;;5.44;68.63;93084.31;5062565;28;20728;-32
2023/01/16 10:12:36;;;;;;;0.70;0.70;;;6.20;83.50;;;5.54;68.56;93076.09;5062209;28;20201;-32
2023/01/16 10:15:36;;;;;;;0.70;0.70;;;6.20;83.40;;;5.64;69.10;93066.06;5061914;28;20235;-32
2023/01/16 10:18:36;;;;;;;0.70;0.70;;;6.30;83.40;;;5.71;67.92;93042.59;4994968;28;20293;-34
2023/01/16 10:21:17;;;;;;;0.70;0.70;;;6.40;82.90;;;5.75;66.09;93034.19;4994062;28;20258;-32
2023/01/16 10:24:18;;;;;;;0.70;0.70;;;6.40;82.50;;;5.87;66.39;93023.09;5061715;28;20178;-34
2023/01/16 10:27:00;;;;;;;0.70;0.70;;;6.50;81.80;;;5.95;65.83;93014.28;4994590;28;20199;-32
2023/01/16 10:29:51;;;;;;;0.80;0.80;;;6.60;81.90;;;6.05;65.88;92999.81;4995337;28;20193;-40
2023/01/16 10:32:46;;;;;;;0.70;0.70;;;6.60;81.80;;;6.16;66.23;92992.31;5061719;28;20182;-33
2023/01/16 10:35:35;;;;;;;0.70;0.70;;;6.70;81.80;;;6.22;64.59;92987.06;5016250;28;20225;-33
2023/01/16 10:38:28;;;;;;;0.70;0.70;;;6.80;80.90;;;6.30;64.70;92969.56;4994242;28;20617;-34
2023/01/16 10:40:56;;;;;;;0.70;0.70;;;6.90;80.90;;;6.32;62.09;92962.34;4994635;28;20221;-40
2023/01/16 10:49:27;;;;;;;0.70;0.70;;;7.10;80.80;;;6.62;64.09;92952.06;4994560;28;20186;-41
2023/01/16 10:51:58;;;;;;;0.70;0.70;;;7.20;80.80;;;6.68;63.05;92940.78;5061801;28;20194;-37
2023/01/16 10:54:25;;;;;;;0.70;0.70;;;7.30;80.40;;;6.79;63.82;92946.28;5061760;28;20539;-38
2023/01/16 10:56:52;;;;;;;0.60;0.60;;;7.30;80.50;;;6.88;63.59;92940.56;4993916;28;20202;-41
2023/01/16 10:59:20;;;;;;;0.70;0.70;;;7.40;80.40;;;6.92;61.67;92927.91;4994085;28;20299;-39
2023/01/16 11:01:50;;;;;;;0.70;0.70;;;7.50;79.40;;;6.95;61.44;92924.84;5061309;28;20204;-40
2023/01/16 11:04:20;;;;;;;0.70;0.70;;;7.50;79.10;;;6.96;60.92;92913.41;5060950;28;20656;-40
2023/01/16 11:06:47;;;;;;;0.70;0.70;;;7.60;78.60;;;7.02;59.99;92909.16;4994462;28;20221;-39
2023/01/16 11:09:14;;;;;;;0.70;0.70;;;7.60;78.40;;;7.08;61.78;92900.44;4994499;28;20224;-33
2023/01/16 11:20:41;;;;;;;0.70;0.70;;;7.80;77.40;;;7.15;59.27;92888.13;4994011;28;20189;-42
2023/01/16 11:23:15;;;;;;;0.70;0.70;;;7.80;76.90;;;7.14;59.12;92875.28;5061226;28;20240;-34
2023/01/16 11:25:45;;;;;;;0.80;0.80;;;7.90;76.40;;;7.15;59.20;92862.06;4993657;28;20250;-34
2023/01/16 11:28:30;;;;;;;0.80;0.80;;;7.90;76.70;;;7.18;60.77;92853.78;5044031;28;20221;-33
2023/01/16 11:31:21;;;;;;;0.70;0.70;;;7.90;76.30;;;7.19;59.96;92842.34;4993371;28;20613;-34
2023/01/16 11:34:02;;;;;;;0.73;0.73;;;7.90;76.60;;;7.25;60.02;92830.22;5060514;28;20206;-33
2023/01/16 11:36:34;;;;;;;0.70;0.70;;;7.90;76.00;;;7.30;58.89;92827.75;4993748;28;20210;-34
2023/01/16 11:39:05;;;;;;;0.70;0.70;;;8.00;76.30;;;7.46;60.08;92813.25;4993450;28;20592;-34
2023/01/16 11:41:37;;;;;;;0.70;0.70;;;8.10;77.30;;;7.71;62.33;92809.66;4993507;28;20625;-39
2023/01/16 11:47:16;;;;;;;0.70;0.70;;;8.80;79.50;;;8.34;63.09;92794.31;4993404;28;20220;-33
2023/01/16 11:49:50;;;;;;;0.70;0.70;;;9.50;79.40;;;8.61;63.55;92792.00;4993498;28;20185;-33